Time,TemperatureF,DewpointF,PressureIn,WindDirection,WindDirectionDegrees,WindSpeedMPH,WindSpeedGustMPH,Humidity,HourlyPrecipIn,Conditions,Clouds,dailyrainin,SolarRadiationWatts/m^2,SoftwareType,DateUTC
2013-06-06 00:09:00,49.9,48.0,29.84,SW,227,2.0,5.0,93,0.00,,,0.00,0,weatherlink.com 1.10,2013-06-06 07:09:00,
2013-06-06 00:24:00,50.0,48.0,29.83,SW,225,1.0,4.0,93,0.00,,,0.00,0,weatherlink.com 1.10,2013-06-06 07:24:00,
2013-06-06 00:54:00,49.8,48.0,29.83,WSW,248,3.0,4.0,93,0.00,,,0.00,0,weatherlink.com 1.10,2013-06-06 07:54:00,
2013-06-06 01:09:00,49.8,48.0,29.82,WNW,284,3.0,4.0,93,0.00,,,0.00,0,weatherlink.com 1.10,2013-06-06 08:09:00,
2013-06-06 01:24:00,49.7,48.0,29.82,West,260,1.0,5.0,93,0.00,,,0.00,0,weatherlink.com 1.10,2013-06-06 08:24:00,
2013-06-06 01:39:00,49.6,48.0,29.82,West,259,1.0,4.0,94,0.00,,,0.00,0,weatherlink.com 1.10,2013-06-06 08:39:00,
2013-06-06 01:54:00,49.4,48.0,29.82,WNW,291,2.0,5.0,94,0.00,,,0.00,0,weatherlink.com 1.10,2013-06-06 08:54:00,
2013-06-06 02:24:00,49.3,48.0,29.82,West,279,1.0,4.0,94,0.00,,,0.00,0,weatherlink.com 1.10,2013-06-06 09:24:00,
2013-06-06 02:39:00,49.3,48.0,29.82,WSW,257,3.0,4.0,95,0.00,,,0.00,0,weatherlink.com 1.10,2013-06-06 09:39:00,
2013-06-06 02:54:00,49.1,48.0,29.82,West,278,2.0,4.0,95,0.00,,,0.00,0,weatherlink.com 1.10,2013-06-06 09:54:00,
2013-06-06 03:09:00,49.0,48.0,29.82,West,276,2.0,4.0,95,0.00,,,0.00,0,weatherlink.com 1.10,2013-06-06 10:09:00,
2013-06-06 03:24:00,48.9,48.0,29.82,WSW,248,3.0,5.0,95,0.00,,,0.00,0,weatherlink.com 1.10,2013-06-06 10:24:00,
2013-06-06 03:39:00,48.7,47.0,29.81,SW,228,2.0,5.0,95,0.00,,,0.00,0,weatherlink.com 1.10,2013-06-06 10:39:00,
2013-06-06 03:54:00,48.7,47.0,29.81,WSW,257,1.0,5.0,95,0.00,,,0.00,0,weatherlink.com 1.10,2013-06-06 10:54:00,
2013-06-06 04:10:00,48.7,48.0,29.81,NW,307,1.0,3.0,96,0.00,,,0.00,0,weatherlink.com 1.10,2013-06-06 11:10:00,
2013-06-06 04:24:00,48.6,48.0,29.81,West,265,1.0,4.0,96,0.00,,,0.00,0,weatherlink.com 1.10,2013-06-06 11:24:00,
2013-06-06 04:39:00,48.4,47.0,29.81,West,275,2.0,3.0,96,0.00,,,0.00,0,weatherlink.com 1.10,2013-06-06 11:39:00,
2013-06-06 04:54:00,48.3,47.0,29.81,West,263,3.0,3.0,96,0.00,,,0.00,0,weatherlink.com 1.10,2013-06-06 11:54:00,
2013-06-06 05:09:00,48.2,47.0,29.81,West,281,2.0,3.0,96,0.00,,,0.00,0,weatherlink.com 1.10,2013-06-06 12:09:00,
2013-06-06 05:24:00,48.1,47.0,29.81,WNW,287,2.0,3.0,96,0.00,,,0.00,0,weatherlink.com 1.10,2013-06-06 12:24:00,
2013-06-06 05:39:00,48.1,47.0,29.82,West,276,0.0,3.0,96,0.00,,,0.00,0,weatherlink.com 1.10,2013-06-06 12:39:00,
2013-06-06 05:54:00,48.3,47.0,29.82,WSW,253,0.0,3.0,96,0.00,,,0.00,5,weatherlink.com 1.10,2013-06-06 12:54:00,
2013-06-06 06:09:00,48.2,47.0,29.82,West,273,1.0,4.0,96,0.00,,,0.00,12,weatherlink.com 1.10,2013-06-06 13:09:00,
2013-06-06 06:24:00,48.3,47.0,29.82,NW,309,1.0,2.0,96,0.00,,,0.00,23,weatherlink.com 1.10,2013-06-06 13:24:00,
2013-06-06 06:40:00,48.6,48.0,29.82,WNW,293,1.0,3.0,97,0.00,,,0.00,39,weatherlink.com 1.10,2013-06-06 13:40:00,
2013-06-06 06:55:00,48.9,48.0,29.82,WNW,292,1.0,3.0,97,0.00,,,0.00,56,weatherlink.com 1.10,2013-06-06 13:55:00,
2013-06-06 07:10:00,49.2,48.0,29.82,WNW,282,2.0,3.0,97,0.00,,,0.00,67,weatherlink.com 1.10,2013-06-06 14:10:00,
2013-06-06 07:25:00,49.6,49.0,29.83,West,278,3.0,4.0,97,0.00,,,0.00,104,weatherlink.com 1.10,2013-06-06 14:25:00,
2013-06-06 07:40:00,50.1,49.0,29.83,WNW,290,2.0,4.0,97,0.00,,,0.00,113,weatherlink.com 1.10,2013-06-06 14:40:00,
2013-06-06 07:55:00,50.5,49.0,29.84,WNW,302,1.0,4.0,96,0.00,,,0.00,172,weatherlink.com 1.10,2013-06-06 14:55:00,
2013-06-06 08:10:00,51.1,50.0,29.84,WNW,284,2.0,4.0,95,0.00,,,0.00,153,weatherlink.com 1.10,2013-06-06 15:10:00,
2013-06-06 08:25:00,51.9,50.0,29.84,WSW,248,1.0,5.0,93,0.00,,,0.00,229,weatherlink.com 1.10,2013-06-06 15:25:00,
2013-06-06 08:40:00,53.0,51.0,29.84,WSW,242,4.0,5.0,91,0.00,,,0.00,272,weatherlink.com 1.10,2013-06-06 15:40:00,
2013-06-06 08:55:00,54.1,51.0,29.84,WSW,250,1.0,6.0,89,0.00,,,0.00,301,weatherlink.com 1.10,2013-06-06 15:55:00,
2013-06-06 09:10:00,55.8,52.0,29.84,WNW,300,4.0,6.0,86,0.00,,,0.00,359,weatherlink.com 1.10,2013-06-06 16:10:00,
2013-06-06 09:25:00,56.7,52.0,29.84,South,173,1.0,5.0,83,0.00,,,0.00,494,weatherlink.com 1.10,2013-06-06 16:25:00,
2013-06-06 09:40:00,57.9,52.0,29.84,SE,138,0.0,5.0,81,0.00,,,0.00,652,weatherlink.com 1.10,2013-06-06 16:40:00,
2013-06-06 09:55:00,59.6,53.0,29.83,South,186,5.0,6.0,78,0.00,,,0.00,652,weatherlink.com 1.10,2013-06-06 16:55:00,
2013-06-06 10:10:00,62.3,55.0,29.83,NW,307,3.0,5.0,76,0.00,,,0.00,689,weatherlink.com 1.10,2013-06-06 17:10:00,
2013-06-06 10:25:00,64.3,54.0,29.83,WNW,284,3.0,6.0,69,0.00,,,0.00,726,weatherlink.com 1.10,2013-06-06 17:25:00,
2013-06-06 10:40:00,66.1,55.0,29.83,West,267,4.0,5.0,67,0.00,,,0.00,756,weatherlink.com 1.10,2013-06-06 17:40:00,
2013-06-06 10:56:00,67.4,56.0,29.83,WSW,250,0.0,6.0,67,0.00,,,0.00,788,weatherlink.com 1.10,2013-06-06 17:56:00,
2013-06-06 11:11:00,68.6,55.0,29.82,SW,218,2.0,6.0,63,0.00,,,0.00,816,weatherlink.com 1.10,2013-06-06 18:11:00,
2013-06-06 11:26:00,70.2,56.0,29.83,NNW,332,1.0,6.0,60,0.00,,,0.00,838,weatherlink.com 1.10,2013-06-06 18:26:00,
2013-06-06 11:41:00,71.9,57.0,29.83,WSW,252,4.0,9.0,59,0.00,,,0.00,861,weatherlink.com 1.10,2013-06-06 18:41:00,
2013-06-06 11:56:00,73.5,57.0,29.82,WNW,293,1.0,7.0,56,0.00,,,0.00,879,weatherlink.com 1.10,2013-06-06 18:56:00,
2013-06-06 12:41:00,77.2,57.0,29.81,SSW,209,5.0,7.0,50,0.00,,,0.00,916,weatherlink.com 1.10,2013-06-06 19:41:00,
2013-06-06 12:56:00,79.2,58.0,29.81,WNW,282,1.0,7.0,48,0.00,,,0.00,919,weatherlink.com 1.10,2013-06-06 19:56:00,
2013-06-06 13:26:00,82.0,59.0,29.80,NW,316,2.0,8.0,45,0.00,,,0.00,918,weatherlink.com 1.10,2013-06-06 20:26:00,
2013-06-06 13:41:00,82.7,59.0,29.80,WSW,244,1.0,6.0,44,0.00,,,0.00,911,weatherlink.com 1.10,2013-06-06 20:41:00,
2013-06-06 13:56:00,83.5,59.0,29.79,WNW,283,3.0,7.0,43,0.00,,,0.00,905,weatherlink.com 1.10,2013-06-06 20:56:00,
2013-06-06 14:26:00,84.6,59.0,29.78,West,264,4.0,8.0,42,0.00,,,0.00,877,weatherlink.com 1.10,2013-06-06 21:26:00,
2013-06-06 14:41:00,85.9,58.0,29.78,West,273,2.0,9.0,39,0.00,,,0.00,856,weatherlink.com 1.10,2013-06-06 21:41:00,
2013-06-06 14:57:00,86.1,58.0,29.77,WSW,252,6.0,9.0,39,0.00,,,0.00,835,weatherlink.com 1.10,2013-06-06 21:57:00,
2013-06-06 15:12:00,86.6,59.0,29.77,WNW,298,4.0,10.0,39,0.00,,,0.00,812,weatherlink.com 1.10,2013-06-06 22:12:00,
2013-06-06 15:42:00,87.5,60.0,29.76,NW,325,5.0,10.0,39,0.00,,,0.00,756,weatherlink.com 1.10,2013-06-06 22:42:00,
2013-06-06 15:57:00,87.1,59.0,29.75,WSW,254,6.0,13.0,38,0.00,,,0.00,722,weatherlink.com 1.10,2013-06-06 22:57:00,
2013-06-06 16:12:00,87.5,59.0,29.74,WSW,241,5.0,10.0,38,0.00,,,0.00,687,weatherlink.com 1.10,2013-06-06 23:12:00,
2013-06-06 16:27:00,87.5,59.0,29.74,West,267,3.0,10.0,38,0.00,,,0.00,649,weatherlink.com 1.10,2013-06-06 23:27:00,
2013-06-06 16:42:00,87.2,58.0,29.73,SW,229,3.0,8.0,37,0.00,,,0.00,612,weatherlink.com 1.10,2013-06-06 23:42:00,
2013-06-06 16:57:00,85.8,58.0,29.73,SSW,213,4.0,8.0,39,0.00,,,0.00,570,weatherlink.com 1.10,2013-06-06 23:57:00,
2013-06-06 17:12:00,85.3,58.0,29.73,West,267,4.0,8.0,39,0.00,,,0.00,527,weatherlink.com 1.10,2013-06-07 00:12:00,
2013-06-06 17:27:00,83.7,57.0,29.73,WSW,254,3.0,8.0,40,0.00,,,0.00,485,weatherlink.com 1.10,2013-06-07 00:27:00,
2013-06-06 17:42:00,83.1,57.0,29.72,SW,227,4.0,7.0,41,0.00,,,0.00,438,weatherlink.com 1.10,2013-06-07 00:42:00,
2013-06-06 17:57:00,82.7,57.0,29.72,West,267,7.0,9.0,41,0.00,,,0.00,399,weatherlink.com 1.10,2013-06-07 00:57:00,
2013-06-06 18:12:00,82.2,57.0,29.72,NW,321,4.0,7.0,42,0.00,,,0.00,341,weatherlink.com 1.10,2013-06-07 01:12:00,
2013-06-06 18:27:00,80.2,57.0,29.72,WSW,244,3.0,6.0,45,0.00,,,0.00,83,weatherlink.com 1.10,2013-06-07 01:27:00,
2013-06-06 18:42:00,77.7,56.0,29.72,West,263,2.0,6.0,47,0.00,,,0.00,70,weatherlink.com 1.10,2013-06-07 01:42:00,
2013-06-06 18:57:00,75.7,56.0,29.72,South,186,2.0,5.0,50,0.00,,,0.00,97,weatherlink.com 1.10,2013-06-07 01:57:00,
2013-06-06 19:12:00,74.3,55.0,29.72,West,262,1.0,4.0,52,0.00,,,0.00,183,weatherlink.com 1.10,2013-06-07 02:12:00,
2013-06-06 19:27:00,73.8,55.0,29.72,WSW,251,2.0,4.0,53,0.00,,,0.00,130,weatherlink.com 1.10,2013-06-07 02:27:00,
2013-06-06 19:42:00,73.1,55.0,29.72,WSW,257,1.0,5.0,54,0.00,,,0.00,81,weatherlink.com 1.10,2013-06-07 02:42:00,
2013-06-06 19:57:00,71.5,55.0,29.72,SW,220,1.0,4.0,56,0.00,,,0.00,39,weatherlink.com 1.10,2013-06-07 02:57:00,
2013-06-06 20:12:00,70.0,54.0,29.73,West,267,0.0,2.0,58,0.00,,,0.00,16,weatherlink.com 1.10,2013-06-07 03:12:00,
2013-06-06 20:27:00,68.5,54.0,29.73,West,267,0.0,2.0,60,0.00,,,0.00,7,weatherlink.com 1.10,2013-06-07 03:27:00,
2013-06-06 20:42:00,66.0,53.0,29.73,West,265,1.0,2.0,63,0.00,,,0.00,0,weatherlink.com 1.10,2013-06-07 03:42:00,
2013-06-06 20:57:00,63.0,53.0,29.74,SW,232,1.0,2.0,69,0.00,,,0.00,0,weatherlink.com 1.10,2013-06-07 03:57:00,
2013-06-06 21:12:00,60.9,52.0,29.74,SW,232,1.0,2.0,73,0.00,,,0.00,0,weatherlink.com 1.10,2013-06-07 04:12:00,
2013-06-06 21:27:00,59.5,52.0,29.75,SW,232,0.0,1.0,76,0.00,,,0.00,0,weatherlink.com 1.10,2013-06-07 04:27:00,
2013-06-06 21:42:00,58.3,51.0,29.75,SW,232,0.0,2.0,77,0.00,,,0.00,0,weatherlink.com 1.10,2013-06-07 04:42:00,
2013-06-06 22:12:00,56.2,50.0,29.76,SW,232,0.0,2.0,81,0.00,,,0.00,0,weatherlink.com 1.10,2013-06-07 05:12:00,
2013-06-06 22:27:00,55.5,50.0,29.76,SW,232,1.0,1.0,82,0.00,,,0.00,0,weatherlink.com 1.10,2013-06-07 05:27:00,
2013-06-06 22:42:00,54.8,50.0,29.76,SW,232,0.0,1.0,84,0.00,,,0.00,0,weatherlink.com 1.10,2013-06-07 05:42:00,
2013-06-06 22:57:00,54.1,50.0,29.76,SW,232,1.0,2.0,85,0.00,,,0.00,0,weatherlink.com 1.10,2013-06-07 05:57:00,
2013-06-06 23:12:00,53.5,49.0,29.76,SW,232,0.0,1.0,85,0.00,,,0.00,0,weatherlink.com 1.10,2013-06-07 06:12:00,
2013-06-06 23:27:00,52.9,49.0,29.76,SW,232,1.0,1.0,86,0.00,,,0.00,0,weatherlink.com 1.10,2013-06-07 06:27:00,
2013-06-06 23:42:00,52.4,49.0,29.76,SW,232,1.0,2.0,87,0.00,,,0.00,0,weatherlink.com 1.10,2013-06-07 06:42:00,
2013-06-06 23:57:00,51.9,49.0,29.76,SW,232,0.0,1.0,88,0.00,,,0.00,0,weatherlink.com 1.10,2013-06-07 06:57:00,